Time;durP1;ratioP1;P1;durP2;ratioP2;P2;SDS_P1;SDS_P2;PMS_P1;PMS_P2;Temp;Humidity;BMP_temperature;BMP_pressure;BME280_temperature;BME280_humidity;BME280_pressure;Samples;Min_cycle;Max_cycle;Signal;HPM_P1;HPM_P2
2023/08/30 00:01:11;;;;;;;14.65;12.98;;;9.70;99.90;;;;;;5046217;28;20074;-75
2023/08/30 00:03:38;;;;;;;15.38;13.70;;;9.50;99.90;;;;;;5051139;28;20131;-75
2023/08/30 00:06:06;;;;;;;19.40;15.13;;;9.50;99.90;;;;;;5032987;28;20044;-75
2023/08/30 00:08:34;;;;;;;19.85;15.80;;;9.60;99.90;;;;;;5046277;28;20072;-75
2023/08/30 00:11:02;;;;;;;21.27;16.90;;;9.60;99.90;;;;;;5046514;28;20744;-75
2023/08/30 00:13:32;;;;;;;25.17;16.90;;;9.50;99.90;;;;;;5048693;28;21011;-75
2023/08/30 00:16:02;;;;;;;21.42;16.67;;;9.50;99.90;;;;;;5044757;28;20049;-75
2023/08/30 00:18:30;;;;;;;27.95;17.45;;;9.50;99.90;;;;;;5048110;28;21076;-75
2023/08/30 00:20:57;;;;;;;22.00;16.55;;;9.60;99.90;;;;;;5043189;28;20052;-75
2023/08/30 00:23:24;;;;;;;24.73;16.95;;;9.50;99.90;;;;;;5048060;28;20136;-75
2023/08/30 00:25:51;;;;;;;25.63;19.25;;;9.40;99.90;;;;;;5043659;28;20047;-75
2023/08/30 00:28:17;;;;;;;24.35;17.38;;;9.60;99.90;;;;;;5061524;28;20205;-75
2023/08/30 00:30:44;;;;;;;29.15;18.33;;;9.50;99.90;;;;;;5047441;28;20052;-75
2023/08/30 00:33:11;;;;;;;27.13;18.40;;;9.50;99.90;;;;;;5044844;28;20052;-75
2023/08/30 00:35:38;;;;;;;25.80;17.65;;;9.50;99.90;;;;;;5054983;28;20068;-75
2023/08/30 00:38:04;;;;;;;21.58;17.42;;;9.50;99.90;;;;;;5048387;28;20106;-75
2023/08/30 00:40:38;;;;;;;23.25;17.20;;;9.50;99.90;;;;;;5047762;28;20597;-75
2023/08/30 00:43:07;;;;;;;24.85;18.88;;;9.50;99.90;;;;;;5031110;28;20048;-74
2023/08/30 00:45:37;;;;;;;31.00;20.75;;;9.50;99.90;;;;;;5031583;28;20729;-75
2023/08/30 00:48:06;;;;;;;39.35;23.98;;;9.50;99.90;;;;;;5050868;28;20048;-75
2023/08/30 00:50:35;;;;;;;38.72;23.88;;;9.50;99.90;;;;;;5047526;28;20129;-75
2023/08/30 00:53:05;;;;;;;37.88;23.33;;;9.50;99.90;;;;;;5044173;28;20102;-75
2023/08/30 00:55:35;;;;;;;41.70;23.83;;;9.50;99.90;;;;;;5031706;28;20044;-75
2023/08/30 00:58:02;;;;;;;38.92;22.90;;;9.40;99.90;;;;;;5045663;28;20033;-75
2023/08/30 01:00:33;;;;;;;36.08;21.98;;;9.40;99.90;;;;;;5047730;28;20553;-75
2023/08/30 01:03:01;;;;;;;36.88;23.42;;;9.30;99.90;;;;;;5033161;28;20048;-75
2023/08/30 01:05:28;;;;;;;33.63;20.33;;;9.20;99.90;;;;;;5031524;28;20052;-74
2023/08/30 01:07:55;;;;;;;36.22;22.08;;;9.30;99.90;;;;;;5027544;28;20047;-75
2023/08/30 01:10:30;;;;;;;43.83;22.92;;;9.30;99.90;;;;;;5046452;28;20045;-76
2023/08/30 01:13:08;;;;;;;46.08;25.60;;;9.40;99.90;;;;;;5058007;28;20548;-75
2023/08/30 01:15:37;;;;;;;56.13;26.30;;;9.40;99.90;;;;;;5042949;28;20037;-75
2023/08/30 01:18:07;;;;;;;45.50;25.35;;;9.30;99.90;;;;;;5043863;28;20048;-75
2023/08/30 01:20:37;;;;;;;40.65;25.00;;;9.20;99.90;;;;;;5044624;28;20033;-75
2023/08/30 01:23:19;;;;;;;46.88;25.45;;;9.20;99.90;;;;;;5025689;28;20064;-75
2023/08/30 01:25:52;;;;;;;48.17;26.00;;;9.30;99.90;;;;;;5044506;28;20072;-75
2023/08/30 01:28:23;;;;;;;39.63;23.95;;;9.20;99.90;;;;;;5049236;28;20140;-75
2023/08/30 01:30:57;;;;;;;31.73;19.52;;;9.20;99.90;;;;;;5031632;28;20538;-75
2023/08/30 01:33:30;;;;;;;29.23;20.02;;;9.10;99.90;;;;;;5059661;28;20778;-75
2023/08/30 01:35:59;;;;;;;30.08;19.80;;;9.10;99.90;;;;;;5028177;28;20048;-75
2023/08/30 01:38:28;;;;;;;29.33;18.85;;;9.00;99.90;;;;;;5048386;28;20686;-75
2023/08/30 01:40:56;;;;;;;24.98;18.38;;;9.10;99.90;;;;;;5050449;28;20036;-75
2023/08/30 01:43:26;;;;;;;26.02;18.83;;;9.10;99.90;;;;;;5040715;28;20040;-74
2023/08/30 01:45:57;;;;;;;24.90;17.25;;;9.10;99.90;;;;;;5025974;28;20076;-75
2023/08/30 01:48:25;;;;;;;26.98;18.77;;;9.00;99.90;;;;;;5043344;28;20045;-75
2023/08/30 01:50:54;;;;;;;22.73;17.58;;;9.00;99.90;;;;;;5046636;28;20040;-75
2023/08/30 01:53:22;;;;;;;20.88;17.30;;;8.90;99.90;;;;;;5046380;28;20040;-75
2023/08/30 01:55:49;;;;;;;20.88;17.08;;;9.10;99.90;;;;;;5050216;28;20090;-74
2023/08/30 01:58:16;;;;;;;25.48;17.27;;;9.20;99.90;;;;;;5047272;28;20064;-76
2023/08/30 02:00:42;;;;;;;22.08;17.50;;;9.30;99.90;;;;;;5029387;28;20044;-75
2023/08/30 02:03:13;;;;;;;23.38;17.58;;;9.30;99.90;;;;;;5047664;28;20142;-75
2023/08/30 02:05:58;;;;;;;22.17;16.60;;;9.40;99.90;;;;;;5047709;28;21387;-75
2023/08/30 02:08:36;;;;;;;20.35;16.95;;;9.50;99.90;;;;;;5048302;28;20052;-75
2023/08/30 02:11:07;;;;;;;25.90;19.85;;;9.50;99.90;;;;;;5061103;28;20048;-75
2023/08/30 02:13:35;;;;;;;23.13;17.50;;;9.50;99.90;;;;;;5044447;28;20049;-76
2023/08/30 02:16:04;;;;;;;26.45;18.58;;;9.60;99.90;;;;;;5044502;28;20045;-75
2023/08/30 02:18:32;;;;;;;29.15;19.73;;;9.50;99.90;;;;;;5046199;28;20393;-76
2023/08/30 02:21:01;;;;;;;23.00;18.35;;;9.70;99.90;;;;;;5041595;28;20101;-76
2023/08/30 02:23:28;;;;;;;24.73;19.17;;;9.80;99.90;;;;;;5048525;28;20685;-75
2023/08/30 02:25:56;;;;;;;23.60;17.92;;;9.80;99.90;;;;;;5028643;28;20048;-75
2023/08/30 02:28:23;;;;;;;24.40;17.80;;;9.80;99.90;;;;;;5032291;28;20098;-75
2023/08/30 02:30:53;;;;;;;24.00;18.15;;;10.00;99.90;;;;;;5048006;28;20044;-76
2023/08/30 02:33:20;;;;;;;26.42;19.90;;;10.00;99.90;;;;;;5039741;28;20639;-76
2023/08/30 02:35:47;;;;;;;29.15;21.80;;;10.10;99.90;;;;;;5047029;28;20071;-74
2023/08/30 02:38:13;;;;;;;24.17;19.95;;;10.10;99.90;;;;;;5041932;28;20120;-76
2023/08/30 02:40:40;;;;;;;25.92;19.77;;;10.10;99.90;;;;;;5043315;28;20055;-76
2023/08/30 02:43:07;;;;;;;24.90;18.88;;;10.30;99.90;;;;;;5043381;28;20049;-76
2023/08/30 02:45:34;;;;;;;21.67;18.08;;;10.30;99.90;;;;;;5041515;28;20052;-76
2023/08/30 02:48:01;;;;;;;26.98;17.83;;;10.30;99.90;;;;;;5044991;28;20406;-75
2023/08/30 02:50:28;;;;;;;23.60;17.58;;;10.30;99.90;;;;;;5026123;28;20740;-75
2023/08/30 02:52:54;;;;;;;23.92;17.35;;;10.20;99.90;;;;;;5046130;28;20113;-74
2023/08/30 02:55:21;;;;;;;20.42;16.98;;;10.50;99.90;;;;;;5045032;28;20128;-76
2023/08/30 02:57:48;;;;;;;25.33;18.23;;;10.60;99.90;;;;;;5039802;28;20148;-76
2023/08/30 03:00:15;;;;;;;27.17;18.80;;;10.60;99.90;;;;;;5043658;28;20669;-76
2023/08/30 03:02:46;;;;;;;25.70;18.33;;;10.60;99.90;;;;;;5041736;28;20505;-76
2023/08/30 03:05:14;;;;;;;27.17;21.33;;;10.50;99.90;;;;;;5042178;28;20052;-77
2023/08/30 03:07:41;;;;;;;27.50;20.00;;;10.60;99.90;;;;;;5026397;28;20059;-75
2023/08/30 03:10:08;;;;;;;28.65;21.67;;;10.40;99.90;;;;;;5024170;28;20074;-75
2023/08/30 03:12:36;;;;;;;32.05;21.05;;;10.40;99.90;;;;;;5043451;28;20739;-76
2023/08/30 03:15:04;;;;;;;32.67;22.10;;;10.60;99.90;;;;;;5044057;28;20043;-74
2023/08/30 03:17:31;;;;;;;31.60;22.73;;;10.50;99.90;;;;;;5043282;28;20499;-77
2023/08/30 03:20:00;;;;;;;29.75;21.58;;;10.60;99.90;;;;;;5042931;28;20064;-77
2023/08/30 03:22:28;;;;;;;36.40;23.10;;;10.70;99.90;;;;;;5045530;28;20044;-74
2023/08/30 03:24:55;;;;;;;29.98;19.67;;;10.70;99.90;;;;;;5045196;28;20051;-77
2023/08/30 03:27:21;;;;;;;30.45;21.85;;;10.80;99.90;;;;;;5045526;28;20056;-76
2023/08/30 03:29:48;;;;;;;26.13;19.55;;;10.70;99.90;;;;;;5026779;28;20043;-76
2023/08/30 03:32:17;;;;;;;34.30;20.67;;;10.90;99.90;;;;;;5046293;28;20044;-76
2023/08/30 03:34:45;;;;;;;30.38;20.90;;;10.90;99.90;;;;;;5046028;28;20750;-77
2023/08/30 03:37:14;;;;;;;28.92;21.00;;;11.00;99.90;;;;;;5049919;28;20056;-75
2023/08/30 03:39:41;;;;;;;30.00;20.55;;;11.10;99.90;;;;;;5047625;28;20131;-74
2023/08/30 03:42:08;;;;;;;32.60;20.05;;;11.10;99.90;;;;;;5050359;28;20048;-74
2023/08/30 03:44:37;;;;;;;29.73;21.33;;;11.00;99.90;;;;;;5051799;28;20135;-75
2023/08/30 03:47:06;;;;;;;29.23;20.40;;;11.10;99.90;;;;;;5044088;28;20075;-75
2023/08/30 03:49:33;;;;;;;28.80;20.92;;;11.00;99.90;;;;;;5048223;28;20072;-75
2023/08/30 03:52:00;;;;;;;31.90;21.40;;;11.00;99.90;;;;;;5052062;28;20174;-75
2023/08/30 03:54:27;;;;;;;33.65;20.95;;;11.10;99.90;;;;;;5051104;28;20044;-75
2023/08/30 03:56:54;;;;;;;27.08;19.38;;;11.10;99.90;;;;;;5052834;28;20028;-77
2023/08/30 03:59:22;;;;;;;24.95;18.83;;;11.10;99.90;;;;;;5057683;28;20040;-76
2023/08/30 04:01:53;;;;;;;26.15;19.33;;;11.10;99.90;;;;;;5035938;28;20056;-74
2023/08/30 04:04:20;;;;;;;29.17;19.58;;;11.10;99.90;;;;;;5050764;28;20106;-77
2023/08/30 04:06:48;;;;;;;23.63;20.15;;;11.20;99.90;;;;;;5052079;28;20679;-77
2023/08/30 04:09:15;;;;;;;26.92;20.33;;;11.20;99.90;;;;;;5032241;28;20067;-76
2023/08/30 04:11:43;;;;;;;27.38;21.45;;;11.40;99.90;;;;;;5045482;28;20482;-74
2023/08/30 04:14:10;;;;;;;28.85;21.38;;;11.50;99.90;;;;;;5030668;28;20148;-76
2023/08/30 04:16:37;;;;;;;36.20;25.88;;;11.50;99.90;;;;;;5047773;28;20033;-75
2023/08/30 04:19:07;;;;;;;36.17;23.83;;;11.50;99.90;;;;;;5043294;28;20037;-77
2023/08/30 04:21:34;;;;;;;37.30;24.83;;;11.60;99.90;;;;;;5051809;28;20036;-75
2023/08/30 04:24:00;;;;;;;34.33;23.77;;;11.50;99.90;;;;;;5047532;28;20048;-74
2023/08/30 04:26:27;;;;;;;35.00;24.75;;;11.40;99.90;;;;;;5034215;28;20094;-77
2023/08/30 04:28:54;;;;;;;32.63;23.35;;;11.60;99.90;;;;;;5050627;28;21478;-76
2023/08/30 04:31:21;;;;;;;37.08;24.90;;;11.80;99.90;;;;;;5048361;28;20041;-77
2023/08/30 04:33:48;;;;;;;41.30;24.58;;;11.70;99.90;;;;;;5049282;28;20141;-76
2023/08/30 04:36:19;;;;;;;32.05;22.42;;;11.60;99.90;;;;;;5047556;28;20036;-77
2023/08/30 04:38:47;;;;;;;40.35;23.75;;;11.50;99.90;;;;;;5049306;28;20052;-77
2023/08/30 04:41:28;;;;;;;37.88;24.33;;;11.60;99.90;;;;;;5036807;28;20047;-74
2023/08/30 04:43:55;;;;;;;32.10;22.90;;;11.70;99.90;;;;;;5045082;28;20105;-74
2023/08/30 04:46:22;;;;;;;30.13;23.70;;;11.50;99.90;;;;;;5038044;28;20633;-75
2023/08/30 04:48:49;;;;;;;40.63;25.75;;;11.60;99.90;;;;;;5029037;28;20068;-76
2023/08/30 04:51:16;;;;;;;37.08;25.73;;;11.70;99.90;;;;;;5047487;28;20036;-77
2023/08/30 04:53:42;;;;;;;35.90;24.55;;;11.60;99.90;;;;;;5049415;28;20511;-74
2023/08/30 04:56:12;;;;;;;38.28;24.92;;;11.60;99.90;;;;;;5037061;28;20465;-76
2023/08/30 04:58:39;;;;;;;34.33;23.63;;;11.50;99.90;;;;;;5047744;28;20624;-75
2023/08/30 05:01:09;;;;;;;35.17;24.85;;;11.40;99.90;;;;;;5050203;28;20052;-74
2023/08/30 05:03:37;;;;;;;36.08;23.13;;;11.50;99.90;;;;;;5054411;28;20127;-75
2023/08/30 05:06:08;;;;;;;34.65;23.33;;;11.40;99.90;;;;;;5032978;28;20506;-75
2023/08/30 05:08:34;;;;;;;37.55;25.77;;;11.40;99.90;;;;;;5043961;28;20052;-74
2023/08/30 05:11:02;;;;;;;37.47;24.23;;;11.50;99.90;;;;;;5043760;28;20041;-77
2023/08/30 05:13:35;;;;;;;35.67;24.45;;;11.60;99.90;;;;;;5046910;28;20182;-75
2023/08/30 05:16:03;;;;;;;36.95;24.45;;;11.60;99.90;;;;;;5044915;28;20036;-75
2023/08/30 05:18:32;;;;;;;45.63;27.48;;;11.70;99.90;;;;;;5049067;28;20679;-75
2023/08/30 05:21:03;;;;;;;42.83;26.27;;;11.70;99.90;;;;;;5046301;28;20044;-75
2023/08/30 05:23:31;;;;;;;40.28;26.35;;;11.70;99.90;;;;;;5032899;28;20052;-75
2023/08/30 05:25:58;;;;;;;42.50;27.40;;;11.70;99.90;;;;;;5044759;28;20415;-75
2023/08/30 05:28:25;;;;;;;44.63;26.80;;;11.60;99.90;;;;;;5046186;28;20052;-76
2023/08/30 05:30:51;;;;;;;41.47;27.50;;;11.70;99.90;;;;;;5048610;28;20106;-75
2023/08/30 05:33:30;;;;;;;46.88;29.20;;;11.80;99.90;;;;;;5033835;28;20050;-75
2023/08/30 05:36:32;;;;;;;52.40;30.25;;;12.00;99.90;;;;;;5028982;28;20036;-75
2023/08/30 05:39:14;;;;;;;51.47;31.05;;;11.90;99.90;;;;;;5030597;28;20049;-75
2023/08/30 05:41:45;;;;;;;50.30;29.65;;;12.00;99.90;;;;;;5026802;28;20060;-75
2023/08/30 05:44:14;;;;;;;44.85;29.33;;;12.10;99.90;;;;;;5038680;28;20463;-75
2023/08/30 05:46:41;;;;;;;49.33;30.65;;;12.10;99.90;;;;;;5038487;28;20032;-76
2023/08/30 05:49:08;;;;;;;47.03;30.02;;;12.10;99.90;;;;;;5046467;28;20063;-75
2023/08/30 05:51:35;;;;;;;43.95;29.13;;;12.10;99.90;;;;;;5048744;28;20048;-76
2023/08/30 05:54:02;;;;;;;44.72;28.13;;;12.10;99.90;;;;;;5048130;28;20525;-75
2023/08/30 05:56:29;;;;;;;32.45;24.83;;;12.10;99.90;;;;;;5044055;28;20128;-76
2023/08/30 05:58:56;;;;;;;38.15;26.65;;;12.10;99.90;;;;;;5044233;28;20032;-75
2023/08/30 06:01:23;;;;;;;32.45;24.52;;;12.00;99.90;;;;;;5041090;28;21150;-75
2023/08/30 06:03:49;;;;;;;42.45;27.80;;;12.10;99.90;;;;;;5046557;28;20928;-75
2023/08/30 06:07:05;;;;;;;45.90;28.60;;;12.10;99.90;;;;;;5044777;28;20090;-75
2023/08/30 06:09:42;;;;;;;42.85;25.95;;;12.20;99.90;;;;;;5039956;28;20105;-75
2023/08/30 06:12:08;;;;;;;39.47;27.60;;;12.40;99.90;;;;;;5041107;28;20056;-75
2023/08/30 06:14:35;;;;;;;46.17;28.60;;;12.40;99.90;;;;;;5046991;28;20048;-75
2023/08/30 06:17:02;;;;;;;40.95;27.45;;;12.40;99.90;;;;;;5047048;28;20037;-75
2023/08/30 06:19:28;;;;;;;42.08;26.02;;;12.40;99.90;;;;;;5044058;28;20096;-75
2023/08/30 06:21:55;;;;;;;36.00;25.92;;;12.40;99.90;;;;;;5046151;28;20037;-75
2023/08/30 06:24:22;;;;;;;35.20;24.73;;;12.50;99.90;;;;;;5043120;28;20040;-76
2023/08/30 06:26:49;;;;;;;39.78;25.58;;;12.60;99.90;;;;;;5046145;28;20044;-75
2023/08/30 06:29:15;;;;;;;38.30;26.92;;;12.80;99.90;;;;;;5047152;28;20414;-75
2023/08/30 06:31:45;;;;;;;33.20;25.45;;;12.80;99.90;;;;;;5045423;28;20048;-75
2023/08/30 06:34:12;;;;;;;41.30;30.70;;;12.90;99.90;;;;;;5027767;28;20143;-75
2023/08/30 06:36:39;;;;;;;38.33;28.20;;;13.00;99.90;;;;;;5047304;28;20043;-75
2023/08/30 06:39:05;;;;;;;40.78;30.35;;;13.00;99.90;;;;;;5044526;28;20122;-75
2023/08/30 06:41:36;;;;;;;42.13;30.35;;;13.00;99.90;;;;;;5041605;28;20683;-76
2023/08/30 06:44:03;;;;;;;39.30;30.10;;;13.10;99.90;;;;;;5047627;28;20102;-75
2023/08/30 06:46:30;;;;;;;37.95;29.33;;;13.20;99.90;;;;;;5044859;28;20076;-75
2023/08/30 06:48:57;;;;;;;40.38;32.15;;;13.40;99.90;;;;;;5043581;28;20041;-75
2023/08/30 06:51:24;;;;;;;33.28;27.80;;;13.60;99.90;;;;;;5043796;28;20055;-75
2023/08/30 06:53:51;;;;;;;37.25;31.20;;;13.70;99.90;;;;;;5043709;28;20098;-75
2023/08/30 06:56:17;;;;;;;39.38;32.55;;;13.80;99.90;;;;;;5045877;28;20033;-75
2023/08/30 06:58:44;;;;;;;38.35;31.85;;;13.90;99.90;;;;;;5045287;28;20116;-75
2023/08/30 07:01:11;;;;;;;42.03;33.75;;;14.00;99.90;;;;;;5042104;28;20044;-76
2023/08/30 07:03:39;;;;;;;38.15;33.30;;;14.10;99.90;;;;;;5046649;28;20044;-75
2023/08/30 07:06:06;;;;;;;42.75;34.65;;;14.10;99.90;;;;;;5017315;28;20048;-75
2023/08/30 07:08:36;;;;;;;39.60;33.17;;;14.20;99.90;;;;;;5036855;28;20041;-76
2023/08/30 07:11:03;;;;;;;36.35;32.22;;;14.40;99.90;;;;;;5042687;28;20087;-76
2023/08/30 07:13:30;;;;;;;36.70;32.35;;;14.50;99.90;;;;;;5045997;28;20253;-75
2023/08/30 07:15:56;;;;;;;41.30;33.90;;;14.70;99.90;;;;;;5040664;28;20040;-75
2023/08/30 07:18:23;;;;;;;37.45;32.53;;;14.90;99.90;;;;;;5043809;28;20051;-75
2023/08/30 07:20:53;;;;;;;38.65;34.58;;;15.20;99.90;;;;;;5047087;28;20041;-75
2023/08/30 07:23:20;;;;;;;40.22;36.20;;;15.30;99.90;;;;;;5044448;28;20129;-75
2023/08/30 07:25:47;;;;;;;40.22;36.25;;;15.30;99.90;;;;;;5045886;28;20045;-75
2023/08/30 07:28:13;;;;;;;41.90;37.78;;;15.40;99.90;;;;;;5045031;28;20037;-75
2023/08/30 07:30:42;;;;;;;42.55;38.10;;;15.50;99.90;;;;;;5043812;28;20105;-75
2023/08/30 07:33:08;;;;;;;42.13;37.95;;;15.60;99.90;;;;;;5046296;28;20039;-76
2023/08/30 07:35:39;;;;;;;44.42;39.65;;;15.70;99.90;;;;;;5044561;28;20131;-75
2023/08/30 07:38:11;;;;;;;41.78;37.90;;;15.70;99.90;;;;;;5047184;28;20044;-76
2023/08/30 07:40:38;;;;;;;40.50;36.42;;;15.80;99.90;;;;;;5042309;28;20060;-76
2023/08/30 07:43:05;;;;;;;39.95;36.38;;;15.80;99.90;;;;;;5027346;28;20057;-76
2023/08/30 07:45:31;;;;;;;39.67;36.03;;;15.80;99.90;;;;;;5040730;28;20072;-75
2023/08/30 07:47:58;;;;;;;39.95;36.45;;;16.00;99.90;;;;;;5045393;28;20063;-76
2023/08/30 07:50:50;;;;;;;39.10;35.50;;;15.90;99.90;;;;;;5044867;28;20486;-74
2023/08/30 07:53:21;;;;;;;39.38;35.63;;;16.20;99.90;;;;;;5011568;28;20067;-74
2023/08/30 07:55:52;;;;;;;40.80;37.00;;;16.50;99.90;;;;;;5033795;28;20057;-74
2023/08/30 07:58:23;;;;;;;41.80;37.80;;;16.60;99.90;;;;;;5042255;28;20060;-74
2023/08/30 08:00:53;;;;;;;40.53;36.92;;;16.50;99.90;;;;;;5047204;28;20792;-74
2023/08/30 08:03:23;;;;;;;40.50;36.80;;;16.60;99.90;;;;;;5025913;28;20053;-74
2023/08/30 08:05:50;;;;;;;42.85;38.65;;;16.90;99.90;;;;;;5047555;28;20430;-74
2023/08/30 08:08:18;;;;;;;43.13;39.03;;;17.00;99.90;;;;;;5044275;28;20071;-74
2023/08/30 08:10:44;;;;;;;43.70;39.42;;;17.10;99.90;;;;;;5042065;28;20043;-75
2023/08/30 08:13:12;;;;;;;41.55;37.65;;;17.10;99.90;;;;;;5038618;28;20041;-75
2023/08/30 08:15:40;;;;;;;47.70;42.53;;;17.20;99.90;;;;;;5044949;28;20036;-76
2023/08/30 08:18:07;;;;;;;47.53;43.03;;;17.20;99.90;;;;;;5048623;28;20139;-75
2023/08/30 08:20:34;;;;;;;49.95;45.00;;;17.40;99.90;;;;;;5040829;28;20487;-75
2023/08/30 08:23:01;;;;;;;50.97;45.90;;;17.10;99.90;;;;;;5048389;28;20286;-75
2023/08/30 08:25:28;;;;;;;48.55;43.88;;;17.10;99.90;;;;;;5041428;28;20060;-76
2023/08/30 08:27:54;;;;;;;45.67;41.53;;;17.00;99.90;;;;;;5049941;28;20052;-76
2023/08/30 08:30:29;;;;;;;47.10;42.63;;;17.10;99.90;;;;;;5041535;28;20106;-76
2023/08/30 08:32:57;;;;;;;49.03;44.28;;;17.20;99.90;;;;;;5047913;28;20041;-76
2023/08/30 08:35:24;;;;;;;47.78;43.22;;;17.20;99.90;;;;;;5046655;28;20162;-76
2023/08/30 08:37:51;;;;;;;46.42;42.28;;;17.20;99.90;;;;;;5048014;28;20051;-76
2023/08/30 08:40:17;;;;;;;46.85;42.42;;;17.50;99.90;;;;;;5041105;28;20052;-75
2023/08/30 08:42:58;;;;;;;46.33;42.28;;;17.50;99.90;;;;;;5049905;28;20124;-75
2023/08/30 08:45:26;;;;;;;46.00;41.83;;;17.60;99.90;;;;;;5042348;28;20048;-76
2023/08/30 08:47:53;;;;;;;47.97;43.38;;;17.90;99.90;;;;;;5052749;28;20048;-76
2023/08/30 08:50:20;;;;;;;46.28;42.25;;;18.00;99.90;;;;;;5043406;28;21170;-76
2023/08/30 08:52:48;;;;;;;46.17;42.33;;;18.00;99.90;;;;;;5049260;28;20037;-76
2023/08/30 08:55:30;;;;;;;45.65;41.63;;;18.10;99.90;;;;;;5047712;28;20052;-75
2023/08/30 08:57:59;;;;;;;44.38;40.40;;;18.20;99.90;;;;;;5048984;28;20977;-76
2023/08/30 09:00:27;;;;;;;43.50;39.97;;;18.20;99.90;;;;;;5047107;28;20121;-75
2023/08/30 09:02:54;;;;;;;46.20;42.28;;;18.40;99.90;;;;;;5047928;28;20133;-75
2023/08/30 09:05:22;;;;;;;46.55;42.38;;;18.50;99.90;;;;;;5027811;28;20125;-74
2023/08/30 09:07:53;;;;;;;44.83;40.97;;;18.50;99.90;;;;;;5050251;28;20051;-75
2023/08/30 09:10:21;;;;;;;46.10;42.40;;;18.30;99.90;;;;;;5041507;28;20044;-75
2023/08/30 09:12:48;;;;;;;44.50;40.67;;;18.30;99.90;;;;;;5050266;28;20029;-75
2023/08/30 09:15:38;;;;;;;40.13;36.70;;;18.30;99.90;;;;;;5043502;28;20052;-75
2023/08/30 09:18:18;;;;;;;38.22;35.13;;;18.20;99.90;;;;;;5030148;28;20052;-75
2023/08/30 09:20:45;;;;;;;37.80;34.88;;;18.20;99.90;;;;;;5048940;28;20146;-75
2023/08/30 09:23:20;;;;;;;41.42;37.90;;;18.50;99.90;;;;;;5038593;28;20062;-75
2023/08/30 09:25:54;;;;;;;;;;;18.80;99.90;;;;;;5052247;28;20105;-76
2023/08/30 09:28:21;;;;;;;36.97;33.97;;;19.00;99.90;;;;;;5044517;28;19978;-74
2023/08/30 09:30:54;;;;;;;35.75;32.78;;;19.10;99.90;;;;;;5049349;28;20045;-76
2023/08/30 09:33:24;;;;;;;33.63;31.23;;;19.10;99.90;;;;;;5046258;28;20111;-76
2023/08/30 09:35:51;;;;;;;35.58;33.13;;;19.10;99.90;;;;;;5044908;28;20371;-75
2023/08/30 09:38:21;;;;;;;37.75;34.92;;;18.80;99.90;;;;;;5049318;28;20399;-75
2023/08/30 09:40:47;;;;;;;38.72;35.85;;;18.50;99.90;;;;;;5042546;28;20618;-75
2023/08/30 09:43:24;;;;;;;35.63;33.03;;;18.60;99.90;;;;;;5044509;28;20525;-76
2023/08/30 09:45:54;;;;;;;37.78;34.88;;;18.90;99.90;;;;;;5047303;28;20067;-74
2023/08/30 09:48:24;;;;;;;40.63;37.35;;;19.10;99.90;;;;;;5043479;28;20053;-75
2023/08/30 09:50:57;;;;;;;39.67;36.72;;;19.40;99.90;;;;;;5045882;28;20043;-75
2023/08/30 09:53:29;;;;;;;41.95;38.38;;;19.70;99.90;;;;;;5043765;28;20044;-75
2023/08/30 09:56:04;;;;;;;42.10;38.70;;;19.60;99.90;;;;;;5039225;28;20036;-77
2023/08/30 09:58:31;;;;;;;40.97;37.67;;;19.60;99.90;;;;;;5040990;28;20044;-75
2023/08/30 10:00:58;;;;;;;40.53;37.35;;;19.80;99.90;;;;;;5049197;28;20048;-75
2023/08/30 10:03:25;;;;;;;40.33;37.00;;;20.10;99.90;;;;;;5044370;28;20049;-76
2023/08/30 10:06:00;;;;;;;40.30;36.85;;;20.20;99.90;;;;;;5041011;28;20127;-75
2023/08/30 10:08:30;;;;;;;41.50;37.70;;;20.20;99.90;;;;;;5042224;28;21310;-76
2023/08/30 10:10:58;;;;;;;40.35;36.83;;;20.20;99.90;;;;;;5042798;28;20047;-76
2023/08/30 10:13:25;;;;;;;39.60;36.25;;;20.10;99.90;;;;;;5044375;28;20415;-75
2023/08/30 10:15:58;;;;;;;40.70;37.30;;;20.20;99.90;;;;;;5030605;28;20196;-77
2023/08/30 10:18:29;;;;;;;41.97;38.25;;;20.00;99.90;;;;;;5045707;28;20150;-76
2023/08/30 10:20:59;;;;;;;39.05;36.05;;;19.90;99.90;;;;;;5047617;28;20040;-79
2023/08/30 10:23:29;;;;;;;39.08;36.05;;;19.70;99.90;;;;;;5052560;28;20057;-78
2023/08/30 10:26:01;;;;;;;36.67;33.88;;;19.70;99.90;;;;;;5050840;28;20100;-80
2023/08/30 10:28:32;;;;;;;34.90;32.28;;;20.10;99.90;;;;;;5050459;28;20110;-79
2023/08/30 10:30:59;;;;;;;31.55;29.13;;;20.50;99.90;;;;;;5055624;28;20499;-78
2023/08/30 10:33:25;;;;;;;30.23;27.90;;;20.70;99.90;;;;;;5049625;28;20045;-78
2023/08/30 10:35:55;;;;;;;30.35;27.98;;;20.60;99.90;;;;;;5054518;28;20286;-78
2023/08/30 10:38:28;;;;;;;29.92;27.58;;;20.40;99.90;;;;;;5054097;28;20043;-79
2023/08/30 10:41:05;;;;;;;29.77;27.55;;;20.20;99.90;;;;;;5050257;28;20515;-79
2023/08/30 10:43:37;;;;;;;31.27;28.73;;;20.40;99.90;;;;;;5033764;28;20075;-80
2023/08/30 10:46:11;;;;;;;30.75;28.48;;;20.20;99.90;;;;;;5053943;28;20048;-79
2023/08/30 10:48:39;;;;;;;29.50;27.33;;;20.10;99.90;;;;;;5048603;28;20052;-78
2023/08/30 10:51:21;;;;;;;30.95;28.55;;;20.00;99.90;;;;;;5029920;28;20624;-78
2023/08/30 10:53:58;;;;;;;30.90;28.80;;;19.90;99.90;;;;;;5054590;28;20040;-79
2023/08/30 10:56:30;;;;;;;31.13;28.92;;;19.90;99.90;;;;;;5051024;28;20055;-78
2023/08/30 10:58:57;;;;;;;31.33;28.73;;;19.90;99.90;;;;;;5067079;28;20041;-79
2023/08/30 11:01:25;;;;;;;30.73;28.45;;;20.10;99.90;;;;;;5033713;28;20195;-79
2023/08/30 11:03:52;;;;;;;29.65;27.65;;;20.30;99.90;;;;;;5035706;28;20058;-79
2023/08/30 11:06:28;;;;;;;30.85;28.73;;;20.40;99.90;;;;;;5044623;28;20392;-80
2023/08/30 11:08:58;;;;;;;30.48;28.38;;;20.50;99.90;;;;;;5051814;28;20439;-78
2023/08/30 11:11:28;;;;;;;30.65;28.52;;;20.70;99.90;;;;;;5047804;28;20041;-79
2023/08/30 11:14:08;;;;;;;31.38;29.08;;;20.70;99.90;;;;;;5052048;28;20040;-77
2023/08/30 11:16:36;;;;;;;32.38;30.02;;;20.60;99.90;;;;;;5043952;28;20046;-78
2023/08/30 11:19:08;;;;;;;30.25;28.15;;;20.60;99.90;;;;;;5053708;28;20047;-79
2023/08/30 11:21:37;;;;;;;31.33;29.13;;;20.90;99.90;;;;;;5048856;28;20225;-78
2023/08/30 11:24:06;;;;;;;31.50;29.15;;;21.20;99.90;;;;;;5052198;28;20294;-79
2023/08/30 11:26:39;;;;;;;29.75;27.77;;;21.30;99.90;;;;;;5050387;28;20048;-78
2023/08/30 11:30:05;;;;;;;29.10;27.10;;;21.00;99.90;;;;;;5055653;28;20044;-79
2023/08/30 11:32:39;;;;;;;31.83;29.52;;;20.60;99.90;;;;;;5045358;28;20538;-77
2023/08/30 11:35:07;;;;;;;30.80;28.70;;;20.60;99.90;;;;;;5049111;28;20041;-78
2023/08/30 11:37:34;;;;;;;32.03;29.73;;;20.80;99.90;;;;;;5049770;28;20288;-76
2023/08/30 11:40:07;;;;;;;31.65;29.48;;;21.20;99.90;;;;;;5032459;28;20190;-78
2023/08/30 11:42:34;;;;;;;33.28;30.40;;;21.20;99.90;;;;;;5050220;28;20040;-78
2023/08/30 11:45:04;;;;;;;31.92;29.73;;;21.10;99.90;;;;;;5071778;28;20049;-77
2023/08/30 11:47:38;;;;;;;31.77;29.70;;;20.80;99.90;;;;;;5052149;28;20620;-78
2023/08/30 11:50:09;;;;;;;32.75;30.55;;;20.70;99.90;;;;;;5005679;28;20164;-78
2023/08/30 11:52:37;;;;;;;31.60;29.38;;;20.70;99.90;;;;;;5046362;28;20076;-78
2023/08/30 11:55:05;;;;;;;32.85;30.58;;;20.90;99.90;;;;;;5059408;28;20453;-78
2023/08/30 11:57:38;;;;;;;31.58;29.38;;;20.80;99.90;;;;;;5050993;28;20045;-77
2023/08/30 12:00:10;;;;;;;34.00;31.73;;;20.60;99.90;;;;;;5055970;28;20040;-79
2023/08/30 12:02:39;;;;;;;32.40;30.27;;;20.50;99.90;;;;;;5049362;28;20159;-79
2023/08/30 12:05:10;;;;;;;32.83;30.63;;;20.80;99.90;;;;;;5031247;28;20064;-79
2023/08/30 12:07:37;;;;;;;32.38;30.08;;;20.70;99.90;;;;;;5015504;28;20107;-77
2023/08/30 12:10:08;;;;;;;31.02;28.73;;;20.60;99.90;;;;;;5031881;28;20064;-78
2023/08/30 12:12:42;;;;;;;33.22;30.80;;;20.70;99.90;;;;;;5026915;28;20084;-79
2023/08/30 12:15:16;;;;;;;32.88;30.58;;;20.90;99.90;;;;;;5050873;28;20056;-78
2023/08/30 12:17:43;;;;;;;33.38;31.17;;;20.70;99.90;;;;;;5028804;28;20042;-78
2023/08/30 12:20:23;;;;;;;32.05;29.90;;;20.60;99.90;;;;;;5051750;28;20090;-79
2023/08/30 12:22:58;;;;;;;31.83;29.73;;;20.50;99.90;;;;;;5033314;28;20044;-79
2023/08/30 12:25:33;;;;;;;32.60;30.10;;;20.70;99.90;;;;;;5045431;28;20736;-77
2023/08/30 12:28:03;;;;;;;32.72;30.38;;;21.10;99.90;;;;;;5063106;28;20108;-78
2023/08/30 12:30:30;;;;;;;32.92;30.67;;;21.10;99.90;;;;;;5052745;28;20458;-78
2023/08/30 12:33:03;;;;;;;32.38;30.17;;;21.20;99.90;;;;;;5045651;28;20796;-79
2023/08/30 12:35:33;;;;;;;32.45;30.30;;;21.40;99.90;;;;;;5026903;28;20056;-77
2023/08/30 12:38:00;;;;;;;31.55;29.48;;;21.20;99.90;;;;;;5045622;28;20185;-77
2023/08/30 12:40:27;;;;;;;32.38;30.33;;;21.20;99.90;;;;;;5034367;28;20040;-78